sensor_id;sensor_type;location;lat;lon;timestamp;temperature;humidity
31443;SHT31;18065;55.876;9.830;2022-11-20T19:56:51;19.53;62.58
31443;SHT31;18065;55.876;9.830;2022-11-20T19:59:20;19.93;61.34
31443;SHT31;18065;55.876;9.830;2022-11-20T20:01:49;20.30;60.24
31443;SHT31;18065;55.876;9.830;2022-11-20T20:04:17;20.54;59.45
31443;SHT31;18065;55.876;9.830;2022-11-20T20:06:46;20.73;58.86
31443;SHT31;18065;55.876;9.830;2022-11-20T20:09:15;20.87;58.41
31443;SHT31;18065;55.876;9.830;2022-11-20T20:11:45;20.97;58.11
31443;SHT31;18065;55.876;9.830;2022-11-20T20:14:16;21.05;57.89
31443;SHT31;18065;55.876;9.830;2022-11-20T20:16:45;21.08;57.69
31443;SHT31;18065;55.876;9.830;2022-11-20T20:19:15;21.15;57.50
31443;SHT31;18065;55.876;9.830;2022-11-20T20:21:43;21.19;57.36
31443;SHT31;18065;55.876;9.830;2022-11-20T20:24:12;21.21;57.16
31443;SHT31;18065;55.876;9.830;2022-11-20T20:26:41;21.23;57.10
31443;SHT31;18065;55.876;9.830;2022-11-20T20:29:09;21.27;56.99
31443;SHT31;18065;55.876;9.830;2022-11-20T20:31:41;21.32;56.88
31443;SHT31;18065;55.876;9.830;2022-11-20T20:34:09;21.31;56.81
31443;SHT31;18065;55.876;9.830;2022-11-20T20:36:38;21.34;56.78
31443;SHT31;18065;55.876;9.830;2022-11-20T20:39:09;21.35;56.71
31443;SHT31;18065;55.876;9.830;2022-11-20T20:41:38;21.35;56.66
31443;SHT31;18065;55.876;9.830;2022-11-20T20:44:09;21.39;56.60
31443;SHT31;18065;55.876;9.830;2022-11-20T20:46:53;21.39;56.58
31443;SHT31;18065;55.876;9.830;2022-11-20T20:49:22;21.36;56.50
31443;SHT31;18065;55.876;9.830;2022-11-20T20:51:50;21.41;56.44
31443;SHT31;18065;55.876;9.830;2022-11-20T20:54:19;21.39;56.37
31443;SHT31;18065;55.876;9.830;2022-11-20T20:56:49;21.41;56.32
31443;SHT31;18065;55.876;9.830;2022-11-20T20:59:18;21.42;56.24
31443;SHT31;18065;55.876;9.830;2022-11-20T21:01:47;21.45;56.22
31443;SHT31;18065;55.876;9.830;2022-11-20T21:04:18;21.46;56.19
31443;SHT31;18065;55.876;9.830;2022-11-20T21:06:47;21.43;56.13
31443;SHT31;18065;55.876;9.830;2022-11-20T21:09:15;21.46;56.13
31443;SHT31;18065;55.876;9.830;2022-11-20T21:11:44;21.46;56.07
31443;SHT31;18065;55.876;9.830;2022-11-20T21:14:13;21.49;56.02
31443;SHT31;18065;55.876;9.830;2022-11-20T21:16:42;21.45;56.04
31443;SHT31;18065;55.876;9.830;2022-11-20T21:19:10;21.49;56.00
31443;SHT31;18065;55.876;9.830;2022-11-20T21:21:42;21.46;55.96
31443;SHT31;18065;55.876;9.830;2022-11-20T21:24:23;21.49;55.89
31443;SHT31;18065;55.876;9.830;2022-11-20T21:26:52;21.46;55.88
31443;SHT31;18065;55.876;9.830;2022-11-20T21:29:22;21.48;55.83
31443;SHT31;18065;55.876;9.830;2022-11-20T21:31:51;21.46;55.78
31443;SHT31;18065;55.876;9.830;2022-11-20T21:34:20;21.48;55.73
31443;SHT31;18065;55.876;9.830;2022-11-20T21:36:52;21.46;55.68
31443;SHT31;18065;55.876;9.830;2022-11-20T21:39:20;21.46;55.62
31443;SHT31;18065;55.876;9.830;2022-11-20T21:41:49;21.46;55.61
31443;SHT31;18065;55.876;9.830;2022-11-20T21:44:18;21.45;55.57
31443;SHT31;18065;55.876;9.830;2022-11-20T21:46:46;21.45;55.52
31443;SHT31;18065;55.876;9.830;2022-11-20T21:49:15;21.42;55.48
31443;SHT31;18065;55.876;9.830;2022-11-20T21:51:43;21.43;55.46
31443;SHT31;18065;55.876;9.830;2022-11-20T21:54:15;21.42;55.45
31443;SHT31;18065;55.876;9.830;2022-11-20T21:56:44;21.42;55.40
31443;SHT31;18065;55.876;9.830;2022-11-20T21:59:13;21.45;55.41
31443;SHT31;18065;55.876;9.830;2022-11-20T22:01:42;21.41;55.36
31443;SHT31;18065;55.876;9.830;2022-11-20T22:04:12;21.42;55.35
31443;SHT31;18065;55.876;9.830;2022-11-20T22:06:41;21.42;55.29
31443;SHT31;18065;55.876;9.830;2022-11-20T22:09:10;21.41;55.27
31443;SHT31;18065;55.876;9.830;2022-11-20T22:11:41;21.38;55.29
31443;SHT31;18065;55.876;9.830;2022-11-20T22:14:10;21.38;55.25
31443;SHT31;18065;55.876;9.830;2022-11-20T22:16:45;21.39;55.21
31443;SHT31;18065;55.876;9.830;2022-11-20T22:19:15;21.36;55.18
31443;SHT31;18065;55.876;9.830;2022-11-20T22:21:45;21.38;55.17
31443;SHT31;18065;55.876;9.830;2022-11-20T22:24:15;21.38;55.16
31443;SHT31;18065;55.876;9.830;2022-11-20T22:26:47;21.36;55.18
31443;SHT31;18065;55.876;9.830;2022-11-20T22:29:17;21.36;55.09
31443;SHT31;18065;55.876;9.830;2022-11-20T22:31:46;21.36;55.09
31443;SHT31;18065;55.876;9.830;2022-11-20T22:34:15;21.34;55.07
31443;SHT31;18065;55.876;9.830;2022-11-20T22:36:43;21.34;55.02
31443;SHT31;18065;55.876;9.830;2022-11-20T22:39:12;21.34;55.07
31443;SHT31;18065;55.876;9.830;2022-11-20T22:41:41;21.32;55.03
31443;SHT31;18065;55.876;9.830;2022-11-20T22:44:14;21.32;55.01
31443;SHT31;18065;55.876;9.830;2022-11-20T22:46:43;21.32;55.00
31443;SHT31;18065;55.876;9.830;2022-11-20T22:49:12;21.34;55.00
31443;SHT31;18065;55.876;9.830;2022-11-20T22:51:40;21.32;54.99
31443;SHT31;18065;55.876;9.830;2022-11-20T22:54:10;21.31;54.93
31443;SHT31;18065;55.876;9.830;2022-11-20T22:56:39;21.32;54.91
31443;SHT31;18065;55.876;9.830;2022-11-20T22:59:08;21.31;54.97
31443;SHT31;18065;55.876;9.830;2022-11-20T23:01:39;21.29;54.91
31443;SHT31;18065;55.876;9.830;2022-11-20T23:04:09;21.28;54.93
31443;SHT31;18065;55.876;9.830;2022-11-20T23:06:38;21.29;54.88
31443;SHT31;18065;55.876;9.830;2022-11-20T23:09:07;21.25;54.86
31443;SHT31;18065;55.876;9.830;2022-11-20T23:11:37;21.28;54.85
31443;SHT31;18065;55.876;9.830;2022-11-20T23:14:10;21.29;54.83
31443;SHT31;18065;55.876;9.830;2022-11-20T23:16:42;21.29;54.79
31443;SHT31;18065;55.876;9.830;2022-11-20T23:19:12;21.25;54.81
31443;SHT31;18065;55.876;9.830;2022-11-20T23:21:41;21.23;54.84
31443;SHT31;18065;55.876;9.830;2022-11-20T23:24:10;21.25;54.81
31443;SHT31;18065;55.876;9.830;2022-11-20T23:26:39;21.23;54.85
31443;SHT31;18065;55.876;9.830;2022-11-20T23:29:09;21.25;54.80
31443;SHT31;18065;55.876;9.830;2022-11-20T23:31:38;21.23;54.81
31443;SHT31;18065;55.876;9.830;2022-11-20T23:34:10;21.19;54.79
31443;SHT31;18065;55.876;9.830;2022-11-20T23:36:39;21.21;54.76
31443;SHT31;18065;55.876;9.830;2022-11-20T23:39:07;21.21;54.77
31443;SHT31;18065;55.876;9.830;2022-11-20T23:41:37;21.21;54.76
31443;SHT31;18065;55.876;9.830;2022-11-20T23:44:06;21.22;54.80
31443;SHT31;18065;55.876;9.830;2022-11-20T23:46:34;21.21;54.80
31443;SHT31;18065;55.876;9.830;2022-11-20T23:49:03;21.19;54.77
31443;SHT31;18065;55.876;9.830;2022-11-20T23:51:34;21.19;54.78
31443;SHT31;18065;55.876;9.830;2022-11-20T23:54:03;21.21;54.80
31443;SHT31;18065;55.876;9.830;2022-11-20T23:56:32;21.19;54.76
31443;SHT31;18065;55.876;9.830;2022-11-20T23:59:00;21.19;54.80
